createdAt,value
2019-05-18T00:03:57.080Z,99982.84
2019-05-18T00:08:50.737Z,99982.34
2019-05-18T00:13:44.944Z,99978.70
2019-05-18T00:18:38.509Z,99984.11
2019-05-18T00:23:31.643Z,99982.39
2019-05-18T00:28:25.190Z,99983.95
2019-05-18T00:33:18.731Z,99982.07
2019-05-18T00:38:12.248Z,99972.83
2019-05-18T00:43:05.589Z,99972.56
2019-05-18T00:47:59.230Z,99982.66
2019-05-18T00:52:53.899Z,99981.95
2019-05-18T00:57:47.375Z,99981.09
2019-05-18T01:02:41.064Z,99980.58
2019-05-18T01:07:34.940Z,99987.50
2019-05-18T01:12:28.638Z,99990.20
2019-05-18T01:17:22.135Z,99981.56
2019-05-18T01:22:15.697Z,99979.46
2019-05-18T01:27:09.288Z,99968.22
2019-05-18T01:32:02.970Z,99971.98
2019-05-18T01:36:56.462Z,99976.38
2019-05-18T01:41:49.915Z,99975.20
2019-05-18T01:46:43.599Z,99972.90
2019-05-18T01:51:37.293Z,99976.51
2019-05-18T01:56:30.873Z,99979.33
2019-05-18T02:01:24.595Z,99994.09
2019-05-18T02:06:18.304Z,99983.69
2019-05-18T02:11:11.913Z,99982.72
2019-05-18T02:16:05.817Z,99982.69
2019-05-18T02:20:59.431Z,99986.59
2019-05-18T02:25:54.572Z,99987.86
2019-05-18T02:30:48.164Z,99986.27
2019-05-18T02:35:42.776Z,99982.57
2019-05-18T02:40:36.773Z,99975.87
2019-05-18T02:45:30.307Z,99972.71
2019-05-18T02:50:23.848Z,99964.69
2019-05-18T02:55:17.448Z,99963.20
2019-05-18T03:00:11.706Z,99960.62
2019-05-18T03:05:07.701Z,99953.92
2019-05-18T03:10:03.317Z,99956.63
2019-05-18T03:14:57.117Z,99957.47
2019-05-18T03:19:50.564Z,99955.50
2019-05-18T03:24:44.400Z,99954.16
2019-05-18T03:29:38.238Z,99958.89
2019-05-18T03:34:31.747Z,99952.67
2019-05-18T03:39:25.878Z,99952.73
2019-05-18T03:44:20.101Z,99955.48
2019-05-18T03:49:26.300Z,99956.64
2019-05-18T03:54:09.352Z,99956.66
2019-05-18T03:59:03.020Z,99946.02
2019-05-18T04:03:57.261Z,99952.97
2019-05-18T04:08:50.872Z,99947.87
2019-05-18T04:13:44.470Z,99940.15
2019-05-18T04:18:38.158Z,99944.60
2019-05-18T04:23:31.746Z,99940.94
2019-05-18T04:28:25.332Z,99947.93
2019-05-18T04:33:18.920Z,99943.81
2019-05-18T04:38:13.068Z,99957.11
2019-05-18T04:43:06.564Z,99958.30
2019-05-18T04:48:00.176Z,99956.34
2019-05-18T04:52:53.619Z,99962.59
2019-05-18T04:57:47.223Z,99962.66
2019-05-18T05:02:40.727Z,99965.09
2019-05-18T05:07:34.117Z,99957.35
2019-05-18T05:12:27.877Z,99958.88
2019-05-18T05:17:22.639Z,99956.75
2019-05-18T05:22:16.288Z,99956.90
2019-05-18T05:27:09.730Z,99955.66
2019-05-18T05:32:03.546Z,99955.74
2019-05-18T05:36:57.119Z,99954.35
2019-05-18T05:41:50.928Z,99962.67
2019-05-18T05:46:44.470Z,99961.19
2019-05-18T05:51:38.280Z,99963.33
2019-05-18T05:56:32.071Z,99959.31
2019-05-18T06:01:25.965Z,99967.31
2019-05-18T06:06:22.992Z,99967.08
2019-05-18T06:11:15.204Z,99966.39
2019-05-18T06:16:09.063Z,99970.47
2019-05-18T06:21:02.521Z,99970.87
2019-05-18T06:25:56.226Z,99980.52
2019-05-18T06:30:49.951Z,99984.47
2019-05-18T06:35:43.713Z,99988.64
2019-05-18T06:40:37.317Z,99992.34
2019-05-18T06:45:30.855Z,99982.58
2019-05-18T06:50:31.033Z,99993.16
2019-05-18T06:55:25.773Z,99994.00
2019-05-18T07:00:19.494Z,99994.34
2019-05-18T07:05:13.751Z,99994.50
2019-05-18T07:10:07.523Z,99983.23
2019-05-18T07:15:01.216Z,99968.05
2019-05-18T07:19:56.344Z,99966.09
2019-05-18T07:24:50.797Z,99978.11
2019-05-18T07:29:44.347Z,99975.73
2019-05-18T07:34:39.336Z,99957.03
2019-05-18T07:39:36.192Z,99975.61
2019-05-18T07:44:32.607Z,99973.53
2019-05-18T07:49:26.134Z,99968.98
2019-05-18T07:54:19.904Z,99987.30
2019-05-18T07:59:13.532Z,99984.05
2019-05-18T08:04:07.367Z,99984.57
2019-05-18T08:09:03.572Z,99989.20
2019-05-18T08:13:58.809Z,99986.34
2019-05-18T08:18:52.444Z,99983.95
2019-05-18T08:23:47.599Z,99981.67
2019-05-18T08:28:41.208Z,99973.33
2019-05-18T08:33:34.887Z,99976.59
2019-05-18T08:38:28.406Z,99971.81
2019-05-18T08:43:22.331Z,99966.95
2019-05-18T08:48:16.169Z,99971.81
2019-05-18T08:53:09.819Z,99971.17
2019-05-18T08:58:04.793Z,99971.40
2019-05-18T09:02:58.273Z,99976.94
2019-05-18T09:07:53.031Z,99983.85
2019-05-18T09:12:46.546Z,99975.08
2019-05-18T09:17:40.680Z,99974.86
2019-05-18T09:22:34.236Z,99975.40
2019-05-18T09:27:28.341Z,99982.41
2019-05-18T09:32:22.026Z,99985.73
2019-05-18T09:37:16.264Z,99981.41
2019-05-18T09:42:09.833Z,99988.67
2019-05-18T09:47:03.320Z,99990.39
2019-05-18T09:51:57.350Z,99987.34
2019-05-18T09:56:51.091Z,99984.91
2019-05-18T10:01:45.191Z,99981.68
2019-05-18T10:06:40.511Z,99986.97
2019-05-18T10:11:38.516Z,99998.61
2019-05-18T10:16:29.814Z,99983.13
2019-05-18T10:21:23.295Z,99982.20
2019-05-18T10:26:16.664Z,99972.92
2019-05-18T10:31:11.847Z,99972.71
2019-05-18T10:36:05.568Z,99979.45
2019-05-18T10:40:59.169Z,99971.50
2019-05-18T10:45:53.065Z,99978.09
2019-05-18T10:50:46.731Z,99963.50
2019-05-18T10:55:40.315Z,99960.28
2019-05-18T11:00:34.009Z,99959.22
2019-05-18T11:05:27.658Z,99955.90
2019-05-18T11:10:24.379Z,99950.94
2019-05-18T11:15:18.399Z,99949.12
2019-05-18T11:20:12.903Z,99940.13
2019-05-18T11:25:07.494Z,99942.04
2019-05-18T11:30:01.325Z,99939.64
2019-05-18T11:34:54.923Z,99938.04
2019-05-18T11:39:48.417Z,99939.59
2019-05-18T11:44:42.163Z,99934.20
2019-05-18T11:49:35.668Z,99932.52
2019-05-18T11:54:30.945Z,99928.24
2019-05-18T11:59:24.485Z,99929.56
2019-05-18T12:04:18.442Z,99925.70
2019-05-18T12:09:11.884Z,99924.14
2019-05-18T12:14:05.502Z,99921.70
2019-05-18T12:18:59.388Z,99916.95
2019-05-18T12:23:53.044Z,99913.31
2019-05-18T12:28:46.647Z,99911.52
2019-05-18T12:33:40.155Z,99914.66
2019-05-18T12:38:33.830Z,99905.03
2019-05-18T12:43:27.417Z,99911.84
2019-05-18T12:48:21.153Z,99913.94
2019-05-18T12:53:17.565Z,99898.19
2019-05-18T12:58:10.160Z,99890.41
2019-05-18T13:03:03.598Z,99883.06
2019-05-18T13:07:57.026Z,99892.42
2019-05-18T13:12:50.907Z,99882.30
2019-05-18T13:17:44.515Z,99878.25
2019-05-18T13:22:38.004Z,99871.95
2019-05-18T13:27:39.632Z,99871.72
2019-05-18T13:32:27.387Z,99865.39
2019-05-18T13:37:21.101Z,99870.39
2019-05-18T13:42:14.785Z,99863.69
2019-05-18T13:47:08.160Z,99859.09
2019-05-18T13:52:01.873Z,99861.05
2019-05-18T13:56:55.500Z,99870.33
2019-05-18T14:01:49.171Z,99862.50
2019-05-18T14:06:43.016Z,99863.71
2019-05-18T14:11:36.644Z,99873.37
2019-05-18T14:16:30.214Z,99860.72
2019-05-18T14:21:23.956Z,99867.55
2019-05-18T14:26:18.570Z,99858.66
2019-05-18T14:31:12.167Z,99865.66
2019-05-18T14:36:06.580Z,99856.27
2019-05-18T14:40:59.861Z,99852.50
2019-05-18T14:45:53.631Z,99855.33
2019-05-18T14:50:47.260Z,99859.92
2019-05-18T14:55:40.863Z,99860.44
2019-05-18T15:00:34.326Z,99863.77
2019-05-18T15:05:27.798Z,99857.31
2019-05-18T15:10:22.365Z,99861.22
2019-05-18T15:15:16.540Z,99857.53
2019-05-18T15:20:10.525Z,99855.80
2019-05-18T15:25:04.610Z,99848.36
2019-05-18T15:29:58.417Z,99846.23
2019-05-18T15:34:52.122Z,99864.23
2019-05-18T15:39:45.836Z,99866.59
2019-05-18T15:44:39.773Z,99869.21
2019-05-18T15:49:33.361Z,99882.06
2019-05-18T15:54:26.957Z,99889.03
2019-05-18T15:59:20.363Z,99886.84
2019-05-18T16:04:13.869Z,99882.61
2019-05-18T16:09:07.757Z,99879.66
2019-05-18T16:14:01.330Z,99887.93
2019-05-18T16:18:54.960Z,99888.77
2019-05-18T16:23:48.463Z,99887.14
2019-05-18T16:28:42.016Z,99891.92
2019-05-18T16:33:35.484Z,99892.38
2019-05-18T16:38:28.996Z,99891.17
2019-05-18T16:43:25.751Z,99898.44
2019-05-18T16:48:19.289Z,99900.09
2019-05-18T16:53:12.872Z,99899.23
2019-05-18T16:58:06.185Z,99904.26
2019-05-18T17:02:59.758Z,99907.70
2019-05-18T17:07:52.996Z,99905.65
2019-05-18T17:12:46.502Z,99912.67
2019-05-18T17:17:40.052Z,99907.03
2019-05-18T17:22:33.674Z,99909.85
2019-05-18T17:27:27.121Z,99914.06
2019-05-18T17:32:20.824Z,99925.26
2019-05-18T17:37:14.508Z,99921.87
2019-05-18T17:42:08.447Z,99919.24
2019-05-18T17:47:01.951Z,99918.93
2019-05-18T17:51:56.378Z,99927.86
2019-05-18T17:56:50.220Z,99927.12
2019-05-18T18:01:43.870Z,99933.34
2019-05-18T18:06:37.468Z,99934.61
2019-05-18T18:11:31.174Z,99926.38
2019-05-18T18:16:27.021Z,99927.91
2019-05-18T18:21:20.823Z,99938.55
2019-05-18T18:26:14.437Z,99935.19
2019-05-18T18:31:07.932Z,99940.99
2019-05-18T18:36:01.463Z,99959.65
2019-05-18T18:40:56.446Z,99963.92
2019-05-18T18:45:49.995Z,99965.41
2019-05-18T18:50:43.542Z,99959.24
2019-05-18T18:55:38.260Z,99962.92
2019-05-18T19:00:31.925Z,99967.75
2019-05-18T19:05:25.548Z,99966.88
2019-05-18T19:10:19.116Z,99967.09
2019-05-18T19:15:13.569Z,99967.28
2019-05-18T19:20:08.591Z,99981.77
2019-05-18T19:25:02.435Z,99987.98
2019-05-18T19:29:56.086Z,99994.32
2019-05-18T19:34:50.018Z,100007.88
2019-05-18T19:39:43.706Z,100020.39
2019-05-18T19:44:37.469Z,100029.38
2019-05-18T19:49:31.382Z,100038.78
2019-05-18T19:54:26.335Z,100043.04
2019-05-18T19:59:20.102Z,100038.62
2019-05-18T20:04:13.639Z,100042.23
2019-05-18T20:09:07.532Z,100037.59
2019-05-18T20:14:01.216Z,100038.84
2019-05-18T20:18:54.905Z,100037.95
2019-05-18T20:23:48.353Z,100047.51
2019-05-18T20:28:41.983Z,100045.62
2019-05-18T20:33:37.341Z,100052.08
2019-05-18T20:38:31.012Z,100048.92
2019-05-18T20:43:24.619Z,100047.19
2019-05-18T20:48:18.331Z,100057.15
2019-05-18T20:53:12.035Z,100051.87
2019-05-18T20:58:07.647Z,100054.16
2019-05-18T21:03:04.965Z,100056.22
2019-05-18T21:07:58.522Z,100060.94
2019-05-18T21:12:51.970Z,100048.61
2019-05-18T21:17:46.624Z,100039.38
2019-05-18T21:22:40.248Z,100029.12
2019-05-18T21:27:33.738Z,100018.75
2019-05-18T21:32:27.371Z,100024.52
2019-05-18T21:37:21.197Z,100025.50
2019-05-18T21:42:15.083Z,100017.03
2019-05-18T21:47:08.792Z,100007.37
2019-05-18T21:52:02.653Z,100004.11
2019-05-18T21:56:56.175Z,100004.78
2019-05-18T22:01:49.751Z,100003.95
2019-05-18T22:06:43.413Z,100001.52
2019-05-18T22:11:37.150Z,100001.69
2019-05-18T22:16:31.123Z,100002.48
2019-05-18T22:21:24.593Z,99996.78
2019-05-18T22:26:18.054Z,99995.80
2019-05-18T22:31:11.519Z,99997.77
2019-05-18T22:36:06.998Z,99987.48
2019-05-18T22:41:00.234Z,99986.83
2019-05-18T22:45:54.025Z,99983.73
2019-05-18T22:50:47.630Z,99987.14
2019-05-18T22:55:41.172Z,99981.43
2019-05-18T23:00:34.998Z,99979.33
2019-05-18T23:05:28.239Z,99986.18
2019-05-18T23:10:21.864Z,99995.47
2019-05-18T23:15:15.441Z,99992.63
2019-05-18T23:20:08.884Z,99996.41
2019-05-18T23:25:02.691Z,99997.26
2019-05-18T23:29:56.506Z,99986.98
2019-05-18T23:34:50.490Z,99983.08
2019-05-18T23:39:43.899Z,99993.11
2019-05-18T23:44:38.555Z,99988.57
2019-05-18T23:49:32.367Z,99998.84
2019-05-18T23:54:25.974Z,100009.74
2019-05-18T23:59:19.504Z,99993.96
